createdAt,value
2018-07-20T00:02:21.955Z,4.50
2018-07-20T00:04:50.807Z,4.73
2018-07-20T00:07:19.603Z,4.37
2018-07-20T00:09:48.432Z,4.60
2018-07-20T00:12:17.242Z,4.20
2018-07-20T00:14:46.059Z,4.33
2018-07-20T00:17:15.024Z,4.07
2018-07-20T00:19:43.868Z,4.60
2018-07-20T00:22:12.693Z,4.33
2018-07-20T00:24:41.491Z,3.83
2018-07-20T00:27:10.311Z,5.00
2018-07-20T00:29:39.139Z,4.43
2018-07-20T00:32:07.983Z,4.43
2018-07-20T00:34:36.754Z,4.47
2018-07-20T00:37:05.552Z,4.50
2018-07-20T00:39:34.369Z,4.17
2018-07-20T00:42:03.176Z,4.33
2018-07-20T00:44:31.967Z,4.40
2018-07-20T00:47:00.804Z,4.33
2018-07-20T00:49:29.615Z,4.50
2018-07-20T00:51:58.417Z,4.77
2018-07-20T00:54:27.227Z,4.70
2018-07-20T00:56:56.035Z,4.57
2018-07-20T00:59:24.871Z,4.40
2018-07-20T01:01:53.691Z,4.70
2018-07-20T01:04:22.316Z,4.50
2018-07-20T01:06:51.011Z,4.90
2018-07-20T01:09:19.810Z,4.27
2018-07-20T01:11:48.636Z,4.33
2018-07-20T01:14:17.434Z,4.70
2018-07-20T01:16:46.240Z,4.47
2018-07-20T01:19:15.043Z,4.57
2018-07-20T01:21:43.848Z,4.30
2018-07-20T01:24:12.680Z,4.80
2018-07-20T01:26:41.497Z,4.17
2018-07-20T01:29:10.307Z,4.67
2018-07-20T01:31:39.115Z,4.70
2018-07-20T01:34:07.947Z,4.27
2018-07-20T01:36:36.761Z,4.83
2018-07-20T01:39:06.275Z,4.67
2018-07-20T01:41:35.097Z,4.47
2018-07-20T01:44:03.960Z,4.80
2018-07-20T01:46:32.771Z,4.60
2018-07-20T01:49:01.576Z,5.20
2018-07-20T01:51:30.395Z,5.30
2018-07-20T01:53:59.208Z,4.50
2018-07-20T01:56:28.863Z,4.80
2018-07-20T01:58:57.780Z,5.20
2018-07-20T02:01:26.587Z,4.57
2018-07-20T02:03:55.647Z,4.47
2018-07-20T02:06:24.475Z,4.87
2018-07-20T02:08:53.531Z,5.10
2018-07-20T02:11:22.364Z,4.80
2018-07-20T02:13:51.392Z,4.83
2018-07-20T02:16:20.208Z,4.60
2018-07-20T02:18:49.019Z,4.63
2018-07-20T02:21:17.848Z,4.80
2018-07-20T02:23:46.664Z,5.30
2018-07-20T02:26:15.483Z,5.07
2018-07-20T02:28:44.319Z,4.80
2018-07-20T02:31:13.681Z,4.90
2018-07-20T02:33:42.467Z,5.00
2018-07-20T02:36:11.283Z,4.83
2018-07-20T02:38:40.112Z,5.40
2018-07-20T02:41:09.099Z,5.30
2018-07-20T02:43:37.951Z,4.67
2018-07-20T02:46:06.789Z,5.07
2018-07-20T02:48:35.636Z,5.40
2018-07-20T02:51:04.443Z,5.17
2018-07-20T02:53:33.263Z,5.20
2018-07-20T02:56:02.090Z,5.00
2018-07-20T02:58:30.900Z,5.20
2018-07-20T03:00:59.706Z,5.03
2018-07-20T03:03:28.523Z,5.10
2018-07-20T03:05:57.348Z,4.90
2018-07-20T03:08:26.167Z,5.63
2018-07-20T03:10:54.998Z,5.43
2018-07-20T03:13:23.815Z,5.60
2018-07-20T03:15:52.531Z,5.60
2018-07-20T03:18:21.270Z,5.10
2018-07-20T03:20:50.075Z,5.50
2018-07-20T03:23:18.892Z,5.70
2018-07-20T03:25:47.700Z,5.10
2018-07-20T03:28:16.548Z,5.90
2018-07-20T03:30:45.363Z,5.20
2018-07-20T03:33:14.173Z,5.10
2018-07-20T03:35:42.978Z,5.73
2018-07-20T03:38:11.788Z,5.53
2018-07-20T03:40:40.619Z,5.53
2018-07-20T03:43:09.437Z,5.40
2018-07-20T03:45:38.243Z,5.53
2018-07-20T03:48:07.055Z,5.03
2018-07-20T03:50:35.850Z,5.70
2018-07-20T03:53:04.671Z,5.37
2018-07-20T03:55:38.563Z,5.10
2018-07-20T03:58:07.415Z,5.67
2018-07-20T04:00:36.230Z,5.83
2018-07-20T04:03:05.218Z,5.50
2018-07-20T04:05:34.032Z,5.20
2018-07-20T04:08:02.836Z,4.77
2018-07-20T04:10:31.676Z,5.17
2018-07-20T04:13:00.487Z,5.10
2018-07-20T04:15:29.299Z,5.67
2018-07-20T04:17:58.103Z,5.27
2018-07-20T04:20:26.908Z,5.70
2018-07-20T04:22:55.731Z,5.33
2018-07-20T04:25:24.535Z,5.10
2018-07-20T04:27:53.344Z,5.53
2018-07-20T04:30:22.235Z,6.00
2018-07-20T04:32:51.039Z,5.63
2018-07-20T04:35:19.859Z,5.60
2018-07-20T04:37:48.664Z,5.67
2018-07-20T04:40:17.491Z,5.53
2018-07-20T04:42:46.299Z,5.30
2018-07-20T04:45:15.111Z,5.30
2018-07-20T04:47:43.920Z,5.67
2018-07-20T04:50:12.731Z,5.50
2018-07-20T04:52:41.546Z,5.70
2018-07-20T04:55:10.347Z,6.47
2018-07-20T04:57:39.159Z,5.90
2018-07-20T05:00:07.984Z,6.43
2018-07-20T05:02:36.847Z,5.30
2018-07-20T05:05:05.680Z,5.43
2018-07-20T05:07:34.495Z,5.67
2018-07-20T05:10:03.311Z,5.83
2018-07-20T05:12:32.135Z,5.30
2018-07-20T05:15:00.957Z,5.37
2018-07-20T05:17:29.763Z,5.03
2018-07-20T05:19:58.576Z,5.00
2018-07-20T05:22:27.375Z,5.00
2018-07-20T05:24:56.206Z,5.97
2018-07-20T05:27:25.015Z,4.63
2018-07-20T05:29:53.849Z,4.60
2018-07-20T05:32:22.648Z,4.30
2018-07-20T05:34:51.516Z,4.60
2018-07-20T05:37:20.352Z,4.40
2018-07-20T05:39:49.167Z,4.90
2018-07-20T05:42:17.987Z,4.90
2018-07-20T05:44:46.961Z,4.70
2018-07-20T05:47:15.770Z,4.10
2018-07-20T05:49:44.584Z,4.27
2018-07-20T05:52:13.400Z,4.10
2018-07-20T05:54:42.223Z,3.83
2018-07-20T05:57:11.111Z,3.50
2018-07-20T05:59:39.943Z,3.60
2018-07-20T06:02:08.752Z,3.50
2018-07-20T06:04:37.576Z,3.80
2018-07-20T06:07:06.384Z,3.37
2018-07-20T06:09:35.195Z,3.37
2018-07-20T06:12:04.028Z,3.70
2018-07-20T06:14:32.833Z,3.57
2018-07-20T06:17:01.659Z,3.40
2018-07-20T06:19:30.475Z,3.60
2018-07-20T06:21:59.399Z,3.33
2018-07-20T06:24:28.222Z,3.90
2018-07-20T06:26:57.160Z,3.10
2018-07-20T06:29:26.060Z,3.63
2018-07-20T06:31:54.880Z,3.50
2018-07-20T06:34:23.684Z,3.20
2018-07-20T06:36:52.515Z,3.53
2018-07-20T06:39:21.344Z,3.50
2018-07-20T06:41:50.155Z,3.53
2018-07-20T06:44:18.980Z,4.00
2018-07-20T06:46:47.975Z,3.67
2018-07-20T06:49:16.786Z,3.90
2018-07-20T06:51:45.609Z,4.27
2018-07-20T06:54:14.406Z,4.53
2018-07-20T06:56:43.240Z,4.13
2018-07-20T06:59:12.052Z,4.10
2018-07-20T07:01:40.863Z,4.30
2018-07-20T07:04:09.699Z,3.93
2018-07-20T07:06:38.491Z,4.10
2018-07-20T07:09:08.694Z,4.27
2018-07-20T07:11:38.085Z,4.10
2018-07-20T07:14:06.925Z,4.43
2018-07-20T07:16:35.747Z,4.77
2018-07-20T07:19:04.582Z,4.50
2018-07-20T07:21:33.388Z,4.33
2018-07-20T07:24:02.213Z,4.27
2018-07-20T07:26:31.056Z,5.00
2018-07-20T07:28:59.867Z,4.80
2018-07-20T07:31:28.486Z,4.50
2018-07-20T07:33:57.170Z,4.90
2018-07-20T07:36:25.999Z,4.67
2018-07-20T07:38:54.881Z,4.57
2018-07-20T07:41:23.752Z,4.53
2018-07-20T07:43:53.208Z,4.67
2018-07-20T07:46:22.138Z,4.63
2018-07-20T07:48:50.947Z,4.77
2018-07-20T07:51:20.202Z,5.60
2018-07-20T07:53:49.039Z,4.83
2018-07-20T07:56:17.846Z,4.73
2018-07-20T07:58:46.951Z,4.60
2018-07-20T08:01:15.751Z,4.47
2018-07-20T08:03:44.568Z,4.33
2018-07-20T08:06:13.359Z,4.37
2018-07-20T08:08:42.167Z,4.70
2018-07-20T08:11:10.976Z,4.20
2018-07-20T08:13:39.591Z,4.10
2018-07-20T08:16:08.266Z,4.27
2018-07-20T08:18:37.856Z,4.30
2018-07-20T08:21:07.031Z,5.03
2018-07-20T08:23:35.848Z,4.93
2018-07-20T08:26:04.671Z,4.87
2018-07-20T08:28:33.999Z,4.47
2018-07-20T08:31:02.892Z,4.50
2018-07-20T08:33:31.711Z,5.00
2018-07-20T08:36:01.176Z,5.13
2018-07-20T08:38:30.900Z,4.80
2018-07-20T08:40:59.735Z,4.43
2018-07-20T08:43:29.112Z,4.63
2018-07-20T08:45:57.967Z,4.70
2018-07-20T08:48:26.767Z,4.40
2018-07-20T08:50:55.593Z,4.57
2018-07-20T08:53:24.403Z,5.20
2018-07-20T08:55:53.223Z,5.07
2018-07-20T08:58:22.117Z,5.20
2018-07-20T09:00:50.926Z,5.57
2018-07-20T09:03:19.767Z,5.37
2018-07-20T09:05:48.704Z,5.57
2018-07-20T09:08:18.226Z,6.07
2018-07-20T09:10:47.343Z,5.60
2018-07-20T09:13:16.142Z,5.83
2018-07-20T09:15:44.965Z,5.40
2018-07-20T09:18:14.577Z,6.23
2018-07-20T09:20:43.508Z,5.73
2018-07-20T09:23:12.195Z,5.53
2018-07-20T09:25:41.052Z,6.57
2018-07-20T09:28:09.925Z,5.57
2018-07-20T09:30:38.716Z,5.47
2018-07-20T09:33:07.642Z,6.00
2018-07-20T09:35:36.470Z,6.17
2018-07-20T09:38:05.203Z,5.83
2018-07-20T09:40:34.025Z,5.80
2018-07-20T09:43:02.856Z,5.97
2018-07-20T09:45:31.738Z,6.30
2018-07-20T09:48:00.541Z,6.47
2018-07-20T09:50:29.359Z,6.80
2018-07-20T09:52:58.160Z,6.23
2018-07-20T09:55:26.979Z,6.37
2018-07-20T09:57:55.842Z,7.37
2018-07-20T10:00:30.014Z,5.97
2018-07-20T10:02:58.827Z,6.23
2018-07-20T10:05:27.644Z,6.07
2018-07-20T10:07:56.651Z,6.37
2018-07-20T10:10:25.470Z,6.33
2018-07-20T10:12:54.305Z,6.40
2018-07-20T10:15:23.117Z,6.50
2018-07-20T10:17:51.930Z,6.00
2018-07-20T10:20:20.749Z,6.33
2018-07-20T10:22:49.557Z,6.20
2018-07-20T10:25:18.387Z,6.53
2018-07-20T10:27:47.206Z,6.47
2018-07-20T10:30:16.047Z,6.13
2018-07-20T10:32:45.993Z,6.40
2018-07-20T10:35:14.864Z,6.97
2018-07-20T10:37:43.676Z,6.90
2018-07-20T10:40:12.574Z,6.60
2018-07-20T10:42:41.387Z,6.87
2018-07-20T10:45:10.511Z,6.33
2018-07-20T10:47:39.431Z,7.17
2018-07-20T10:50:08.803Z,6.30
2018-07-20T10:52:37.651Z,6.63
2018-07-20T10:55:06.468Z,6.40
2018-07-20T10:57:35.299Z,7.23
2018-07-20T11:00:04.488Z,7.10
2018-07-20T11:02:33.295Z,7.00
2018-07-20T11:05:02.116Z,6.33
2018-07-20T11:07:30.944Z,6.67
2018-07-20T11:09:59.746Z,6.60
2018-07-20T11:12:28.573Z,7.07
2018-07-20T11:14:57.378Z,6.50
2018-07-20T11:17:26.212Z,5.93
2018-07-20T11:19:55.020Z,6.30
2018-07-20T11:22:23.678Z,6.47
2018-07-20T11:24:52.380Z,6.57
2018-07-20T11:27:21.199Z,5.73
2018-07-20T11:29:50.033Z,7.17
2018-07-20T11:32:18.872Z,6.53
2018-07-20T11:34:48.821Z,7.27
2018-07-20T11:37:17.615Z,6.43
2018-07-20T11:39:46.432Z,6.27
2018-07-20T11:42:15.245Z,6.23
2018-07-20T11:44:44.112Z,6.80
2018-07-20T11:47:12.918Z,6.37
2018-07-20T11:49:41.759Z,7.00
2018-07-20T11:52:10.583Z,7.30
2018-07-20T11:54:39.535Z,7.23
2018-07-20T11:57:08.384Z,6.60
2018-07-20T11:59:37.215Z,7.47
2018-07-20T12:02:06.136Z,8.00
2018-07-20T12:04:34.944Z,7.30
2018-07-20T12:07:03.871Z,7.03
2018-07-20T12:09:32.787Z,7.00
2018-07-20T12:12:02.463Z,7.57
2018-07-20T12:14:31.404Z,6.63
2018-07-20T12:17:00.180Z,7.43
2018-07-20T12:19:29.000Z,8.10
2018-07-20T12:21:57.796Z,7.00
2018-07-20T12:24:26.419Z,7.27
2018-07-20T12:26:55.137Z,6.80
2018-07-20T12:29:23.939Z,7.17
2018-07-20T12:31:52.764Z,7.00
2018-07-20T12:34:21.579Z,8.67
2018-07-20T12:36:50.383Z,6.87
2018-07-20T12:39:19.191Z,7.47
2018-07-20T12:41:47.996Z,6.60
2018-07-20T12:44:16.856Z,6.50
2018-07-20T12:46:46.516Z,6.57
2018-07-20T12:49:15.291Z,6.97
2018-07-20T12:51:44.103Z,6.73
2018-07-20T12:54:12.916Z,6.90
2018-07-20T12:56:41.724Z,7.17
2018-07-20T12:59:11.342Z,7.00
2018-07-20T13:01:40.772Z,6.90
2018-07-20T13:04:09.623Z,6.60
2018-07-20T13:06:38.399Z,6.50
2018-07-20T13:09:08.987Z,6.87
2018-07-20T13:11:37.807Z,6.93
2018-07-20T13:14:07.072Z,7.33
2018-07-20T13:16:35.893Z,6.70
2018-07-20T13:19:04.851Z,6.83
2018-07-20T13:21:33.677Z,6.63
2018-07-20T13:24:02.480Z,6.70
2018-07-20T13:26:31.287Z,7.43
2018-07-20T13:29:00.103Z,6.77
2018-07-20T13:31:28.911Z,6.47
2018-07-20T13:33:57.726Z,7.97
2018-07-20T13:36:26.546Z,6.80
2018-07-20T13:38:55.351Z,7.80
2018-07-20T13:41:24.175Z,7.47
2018-07-20T13:43:52.984Z,7.93
2018-07-20T13:46:22.464Z,6.60
2018-07-20T13:48:51.267Z,7.53
2018-07-20T13:51:20.076Z,7.13
2018-07-20T13:53:48.893Z,6.93
2018-07-20T13:56:17.711Z,7.47
2018-07-20T13:58:46.523Z,7.10
2018-07-20T14:01:15.331Z,7.23
2018-07-20T14:03:44.155Z,7.70
2018-07-20T14:06:13.251Z,7.60
2018-07-20T14:08:42.059Z,7.00
2018-07-20T14:11:10.887Z,7.30
2018-07-20T14:13:39.730Z,6.97
2018-07-20T14:16:08.555Z,7.90
2018-07-20T14:18:37.399Z,7.27
2018-07-20T14:21:06.205Z,7.57
2018-07-20T14:23:35.044Z,7.67
2018-07-20T14:26:03.841Z,7.60
2018-07-20T14:28:32.644Z,7.83
2018-07-20T14:31:01.491Z,7.33
2018-07-20T14:33:30.348Z,7.17
2018-07-20T14:35:59.311Z,6.83
2018-07-20T14:38:28.140Z,7.27
2018-07-20T14:40:56.953Z,7.33
2018-07-20T14:43:25.799Z,7.27
2018-07-20T14:45:54.630Z,7.20
2018-07-20T14:48:23.439Z,7.20
2018-07-20T14:50:52.259Z,7.27
2018-07-20T14:53:21.208Z,6.70
2018-07-20T14:55:49.847Z,8.33
2018-07-20T14:58:18.562Z,7.03
2018-07-20T15:00:47.396Z,6.77
2018-07-20T15:03:16.224Z,7.03
2018-07-20T15:05:45.676Z,6.70
2018-07-20T15:08:14.607Z,9.37
2018-07-20T15:10:43.436Z,6.60
2018-07-20T15:13:12.247Z,7.60
2018-07-20T15:15:41.063Z,7.33
2018-07-20T15:18:09.951Z,7.17
2018-07-20T15:20:39.277Z,8.30
2018-07-20T15:23:08.088Z,7.70
2018-07-20T15:25:37.119Z,7.87
2018-07-20T15:28:06.020Z,7.40
2018-07-20T15:30:35.036Z,6.83
2018-07-20T15:33:03.852Z,7.57
2018-07-20T15:35:32.668Z,8.63
2018-07-20T15:38:01.535Z,7.73
2018-07-20T15:40:30.318Z,7.90
2018-07-20T15:42:59.140Z,7.77
2018-07-20T15:45:28.044Z,8.27
2018-07-20T15:47:56.863Z,7.37
2018-07-20T15:50:25.671Z,7.73
2018-07-20T15:53:36.251Z,7.20
2018-07-20T15:55:23.347Z,7.13
2018-07-20T15:57:52.236Z,8.03
2018-07-20T16:00:21.100Z,7.80
2018-07-20T16:02:49.919Z,7.63
2018-07-20T16:05:18.731Z,7.70
2018-07-20T16:07:47.555Z,7.90
2018-07-20T16:10:16.429Z,7.60
2018-07-20T16:12:45.287Z,7.87
2018-07-20T16:15:14.135Z,7.87
2018-07-20T16:17:43.007Z,7.77
2018-07-20T16:20:11.824Z,7.73
2018-07-20T16:22:40.595Z,8.50
2018-07-20T16:25:09.247Z,7.23
2018-07-20T16:27:38.068Z,7.67
2018-07-20T16:30:07.278Z,7.43
2018-07-20T16:32:36.102Z,7.60
2018-07-20T16:35:04.919Z,7.83
2018-07-20T16:37:33.747Z,8.60
2018-07-20T16:40:03.187Z,9.10
2018-07-20T16:42:32.008Z,7.63
2018-07-20T16:45:00.819Z,7.87
2018-07-20T16:47:29.638Z,8.50
2018-07-20T16:49:58.459Z,7.80
2018-07-20T16:52:27.282Z,8.67
2018-07-20T16:54:56.143Z,8.97
2018-07-20T16:57:25.225Z,8.70
2018-07-20T16:59:54.045Z,7.63
2018-07-20T17:02:22.856Z,7.93
2018-07-20T17:04:51.681Z,7.53
2018-07-20T17:07:20.495Z,9.10
2018-07-20T17:09:49.999Z,8.60
2018-07-20T17:12:18.812Z,8.50
2018-07-20T17:14:47.635Z,7.47
2018-07-20T17:17:17.304Z,9.00
2018-07-20T17:19:46.091Z,8.27
2018-07-20T17:22:15.199Z,10.70
2018-07-20T17:24:44.200Z,12.43
2018-07-20T17:27:13.011Z,9.77
2018-07-20T17:29:41.843Z,10.07
2018-07-20T17:32:11.131Z,8.23
2018-07-20T17:34:39.952Z,12.67
2018-07-20T17:37:08.767Z,13.60
2018-07-20T17:39:37.591Z,9.30
2018-07-20T17:42:06.791Z,8.57
2018-07-20T17:44:35.595Z,10.23
2018-07-20T17:47:04.406Z,8.43
2018-07-20T17:49:33.235Z,9.80
2018-07-20T17:52:02.043Z,9.33
2018-07-20T17:54:30.859Z,9.57
2018-07-20T17:56:59.711Z,9.50
2018-07-20T17:59:28.530Z,8.23
2018-07-20T18:01:57.343Z,8.90
2018-07-20T18:04:26.150Z,9.30
2018-07-20T18:06:55.744Z,10.37
2018-07-20T18:09:24.584Z,8.40
2018-07-20T18:11:53.654Z,8.00
2018-07-20T18:14:22.475Z,8.27
2018-07-20T18:16:51.297Z,8.73
2018-07-20T18:19:20.112Z,8.10
2018-07-20T18:21:48.939Z,8.03
2018-07-20T18:24:17.759Z,8.10
2018-07-20T18:26:46.491Z,8.57
2018-07-20T18:29:15.190Z,9.03
2018-07-20T18:31:44.012Z,7.97
2018-07-20T18:34:13.056Z,8.67
2018-07-20T18:36:41.879Z,7.67
2018-07-20T18:39:12.063Z,7.77
2018-07-20T18:41:41.470Z,7.47
2018-07-20T18:44:10.655Z,7.93
2018-07-20T18:46:39.607Z,7.83
2018-07-20T18:49:08.423Z,8.00
2018-07-20T18:51:37.244Z,8.47
2018-07-20T18:54:06.269Z,7.33
2018-07-20T18:56:35.073Z,7.57
2018-07-20T18:59:03.890Z,7.67
2018-07-20T19:01:32.716Z,7.83
2018-07-20T19:04:01.532Z,7.77
2018-07-20T19:06:30.355Z,8.20
2018-07-20T19:08:59.394Z,7.40
2018-07-20T19:11:28.191Z,7.87
2018-07-20T19:13:56.995Z,8.03
2018-07-20T19:16:25.808Z,7.73
2018-07-20T19:18:54.616Z,8.20
2018-07-20T19:21:23.424Z,7.90
2018-07-20T19:23:52.276Z,7.97
2018-07-20T19:26:21.040Z,7.80
2018-07-20T19:28:50.735Z,7.97
2018-07-20T19:31:19.548Z,8.13
2018-07-20T19:33:48.460Z,8.00
2018-07-20T19:36:17.463Z,8.00
2018-07-20T19:38:46.264Z,8.07
2018-07-20T19:41:15.259Z,8.17
2018-07-20T19:43:44.233Z,8.47
2018-07-20T19:46:13.643Z,8.53
2018-07-20T19:48:42.468Z,8.60
2018-07-20T19:51:11.271Z,8.50
2018-07-20T19:53:40.087Z,7.93
2018-07-20T19:56:09.126Z,8.23
2018-07-20T19:58:37.923Z,8.30
2018-07-20T20:01:06.732Z,7.47
2018-07-20T20:03:35.547Z,8.10
2018-07-20T20:06:04.577Z,8.40
2018-07-20T20:08:33.416Z,8.53
2018-07-20T20:11:02.242Z,9.20
2018-07-20T20:13:31.063Z,9.13
2018-07-20T20:15:59.891Z,9.03
2018-07-20T20:18:28.721Z,8.77
2018-07-20T20:20:57.531Z,8.63
2018-07-20T20:23:26.355Z,8.03
2018-07-20T20:25:55.179Z,7.93
2018-07-20T20:28:23.998Z,8.70
2018-07-20T20:30:52.809Z,8.30
2018-07-20T20:33:21.628Z,7.90
2018-07-20T20:35:50.442Z,7.77
2018-07-20T20:38:19.268Z,8.60
2018-07-20T20:40:48.079Z,8.17
2018-07-20T20:43:16.912Z,7.80
2018-07-20T20:45:45.715Z,8.30
2018-07-20T20:48:14.580Z,7.27
2018-07-20T20:50:43.470Z,8.40
2018-07-20T20:53:12.276Z,8.07
2018-07-20T20:55:41.095Z,8.50
2018-07-20T20:58:09.934Z,7.90
2018-07-20T21:00:38.731Z,7.47
2018-07-20T21:03:07.553Z,8.27
2018-07-20T21:05:36.527Z,8.10
2018-07-20T21:08:05.611Z,7.80
2018-07-20T21:10:34.417Z,7.80
2018-07-20T21:13:03.255Z,7.43
2018-07-20T21:15:32.066Z,8.63
2018-07-20T21:18:00.896Z,7.67
2018-07-20T21:20:29.745Z,7.17
2018-07-20T21:22:58.583Z,7.60
2018-07-20T21:25:27.439Z,7.67
2018-07-20T21:27:56.252Z,7.60
2018-07-20T21:30:25.072Z,7.33
2018-07-20T21:32:53.877Z,7.53
2018-07-20T21:35:22.709Z,7.80
2018-07-20T21:37:51.514Z,8.47
2018-07-20T21:40:20.417Z,8.00
2018-07-20T21:42:49.223Z,7.97
2018-07-20T21:45:18.083Z,8.40
2018-07-20T21:47:46.868Z,7.30
2018-07-20T21:50:15.723Z,7.80
2018-07-20T21:52:44.531Z,7.90
2018-07-20T21:55:13.352Z,8.17
2018-07-20T21:57:42.151Z,8.27
2018-07-20T22:00:14.928Z,7.73
2018-07-20T22:02:43.763Z,7.67
2018-07-20T22:05:12.572Z,7.47
2018-07-20T22:07:41.380Z,7.87
2018-07-20T22:10:10.216Z,8.00
2018-07-20T22:12:39.055Z,7.27
2018-07-20T22:15:08.663Z,7.50
2018-07-20T22:17:37.664Z,7.63
2018-07-20T22:20:07.467Z,7.50
2018-07-20T22:22:36.290Z,7.10
2018-07-20T22:25:05.967Z,7.83
2018-07-20T22:27:35.051Z,7.33
2018-07-20T22:30:04.504Z,7.40
2018-07-20T22:32:33.323Z,7.03
2018-07-20T22:35:02.147Z,7.67
2018-07-20T22:37:30.966Z,7.80
2018-07-20T22:39:59.778Z,6.93
2018-07-20T22:42:28.599Z,7.20
2018-07-20T22:44:57.843Z,7.40
2018-07-20T22:47:26.652Z,7.20
2018-07-20T22:49:55.359Z,7.07
2018-07-20T22:52:24.075Z,7.33
2018-07-20T22:54:52.895Z,7.43
2018-07-20T22:57:21.737Z,7.07
2018-07-20T22:59:50.535Z,7.40
2018-07-20T23:02:19.356Z,7.50
2018-07-20T23:04:48.176Z,7.30
2018-07-20T23:07:17.019Z,7.13
2018-07-20T23:09:45.846Z,7.03
2018-07-20T23:12:14.667Z,7.53
2018-07-20T23:14:43.480Z,7.63
2018-07-20T23:17:12.311Z,7.37
2018-07-20T23:19:41.161Z,8.10
2018-07-20T23:22:09.984Z,7.33
2018-07-20T23:24:38.795Z,6.67
2018-07-20T23:27:07.651Z,7.53
2018-07-20T23:29:36.475Z,7.10
2018-07-20T23:32:05.551Z,6.97
2018-07-20T23:34:34.355Z,7.17
2018-07-20T23:37:03.176Z,7.50
2018-07-20T23:39:31.995Z,6.83
2018-07-20T23:42:00.823Z,7.07
2018-07-20T23:44:29.648Z,6.53
2018-07-20T23:46:58.477Z,7.27
2018-07-20T23:49:27.282Z,6.97
2018-07-20T23:51:56.104Z,7.30
2018-07-20T23:54:24.921Z,6.83
2018-07-20T23:56:53.745Z,7.40
2018-07-20T23:59:22.555Z,6.70
